sensor_id;sensor_type;location;lat;lon;timestamp;P1;durP1;ratioP1;P2;durP2;ratioP2
14092;SDS011;7123;49.468;10.992;2024-02-26T00:00:23;7.83;;;4.93;;
14092;SDS011;7123;49.468;10.992;2024-02-26T00:02:50;6.00;;;4.40;;
14092;SDS011;7123;49.468;10.992;2024-02-26T00:05:17;5.20;;;4.70;;
14092;SDS011;7123;49.468;10.992;2024-02-26T00:07:44;6.00;;;4.60;;
14092;SDS011;7123;49.468;10.992;2024-02-26T00:10:11;8.77;;;5.27;;
14092;SDS011;7123;49.468;10.992;2024-02-26T00:12:39;8.03;;;5.13;;
14092;SDS011;7123;49.468;10.992;2024-02-26T00:15:10;7.80;;;5.13;;
14092;SDS011;7123;49.468;10.992;2024-02-26T00:17:37;6.00;;;4.77;;
14092;SDS011;7123;49.468;10.992;2024-02-26T00:20:05;6.93;;;4.97;;
14092;SDS011;7123;49.468;10.992;2024-02-26T00:22:37;7.13;;;5.10;;
14092;SDS011;7123;49.468;10.992;2024-02-26T00:25:08;5.17;;;4.27;;
14092;SDS011;7123;49.468;10.992;2024-02-26T00:27:44;5.53;;;4.50;;
14092;SDS011;7123;49.468;10.992;2024-02-26T00:30:10;4.63;;;3.90;;
14092;SDS011;7123;49.468;10.992;2024-02-26T00:32:38;5.07;;;3.87;;
14092;SDS011;7123;49.468;10.992;2024-02-26T00:35:05;4.37;;;3.27;;
14092;SDS011;7123;49.468;10.992;2024-02-26T00:37:33;4.67;;;3.73;;
14092;SDS011;7123;49.468;10.992;2024-02-26T00:40:02;4.10;;;3.60;;
14092;SDS011;7123;49.468;10.992;2024-02-26T00:42:29;4.97;;;3.93;;
14092;SDS011;7123;49.468;10.992;2024-02-26T00:44:57;3.77;;;3.27;;
14092;SDS011;7123;49.468;10.992;2024-02-26T00:47:26;6.90;;;4.37;;
14092;SDS011;7123;49.468;10.992;2024-02-26T00:49:53;4.93;;;3.60;;
14092;SDS011;7123;49.468;10.992;2024-02-26T00:52:20;3.67;;;3.37;;
14092;SDS011;7123;49.468;10.992;2024-02-26T00:54:47;5.93;;;3.87;;
14092;SDS011;7123;49.468;10.992;2024-02-26T00:57:14;5.03;;;3.53;;
14092;SDS011;7123;49.468;10.992;2024-02-26T00:59:41;4.73;;;3.67;;
14092;SDS011;7123;49.468;10.992;2024-02-26T01:02:09;4.83;;;4.07;;
14092;SDS011;7123;49.468;10.992;2024-02-26T01:04:36;6.27;;;4.30;;
14092;SDS011;7123;49.468;10.992;2024-02-26T01:07:03;5.23;;;4.10;;
14092;SDS011;7123;49.468;10.992;2024-02-26T01:09:31;6.50;;;4.30;;
14092;SDS011;7123;49.468;10.992;2024-02-26T01:11:58;4.73;;;4.03;;
14092;SDS011;7123;49.468;10.992;2024-02-26T01:14:26;5.27;;;4.10;;
14092;SDS011;7123;49.468;10.992;2024-02-26T01:16:53;7.37;;;4.60;;
14092;SDS011;7123;49.468;10.992;2024-02-26T01:19:21;5.60;;;4.23;;
14092;SDS011;7123;49.468;10.992;2024-02-26T01:21:48;5.37;;;4.30;;
14092;SDS011;7123;49.468;10.992;2024-02-26T01:24:15;4.57;;;3.97;;
14092;SDS011;7123;49.468;10.992;2024-02-26T01:26:43;6.23;;;4.60;;
14092;SDS011;7123;49.468;10.992;2024-02-26T01:29:09;4.47;;;4.07;;
14092;SDS011;7123;49.468;10.992;2024-02-26T01:31:38;5.07;;;4.20;;
14092;SDS011;7123;49.468;10.992;2024-02-26T01:34:05;5.07;;;4.10;;
14092;SDS011;7123;49.468;10.992;2024-02-26T01:36:32;5.57;;;4.40;;
14092;SDS011;7123;49.468;10.992;2024-02-26T01:39:00;6.13;;;4.80;;
14092;SDS011;7123;49.468;10.992;2024-02-26T01:41:29;8.67;;;5.20;;
14092;SDS011;7123;49.468;10.992;2024-02-26T01:43:57;9.00;;;4.50;;
14092;SDS011;7123;49.468;10.992;2024-02-26T01:46:23;6.83;;;4.60;;
14092;SDS011;7123;49.468;10.992;2024-02-26T01:48:58;6.30;;;4.50;;
14092;SDS011;7123;49.468;10.992;2024-02-26T01:51:25;8.47;;;4.97;;
14092;SDS011;7123;49.468;10.992;2024-02-26T01:53:52;6.67;;;5.40;;
14092;SDS011;7123;49.468;10.992;2024-02-26T01:56:19;6.07;;;4.90;;
14092;SDS011;7123;49.468;10.992;2024-02-26T01:58:47;9.60;;;5.90;;
14092;SDS011;7123;49.468;10.992;2024-02-26T02:01:15;8.57;;;5.70;;
14092;SDS011;7123;49.468;10.992;2024-02-26T02:03:45;8.30;;;5.20;;
14092;SDS011;7123;49.468;10.992;2024-02-26T02:06:12;6.97;;;5.60;;
14092;SDS011;7123;49.468;10.992;2024-02-26T02:08:39;9.83;;;5.77;;
14092;SDS011;7123;49.468;10.992;2024-02-26T02:11:06;8.17;;;5.60;;
14092;SDS011;7123;49.468;10.992;2024-02-26T02:13:33;8.07;;;5.33;;
14092;SDS011;7123;49.468;10.992;2024-02-26T02:16:00;6.60;;;5.50;;
14092;SDS011;7123;49.468;10.992;2024-02-26T02:18:27;8.47;;;5.50;;
14092;SDS011;7123;49.468;10.992;2024-02-26T02:20:54;8.00;;;5.63;;
14092;SDS011;7123;49.468;10.992;2024-02-26T02:23:22;8.77;;;5.97;;
14092;SDS011;7123;49.468;10.992;2024-02-26T02:25:49;8.00;;;5.87;;
14092;SDS011;7123;49.468;10.992;2024-02-26T02:28:16;7.27;;;5.40;;
14092;SDS011;7123;49.468;10.992;2024-02-26T02:30:43;7.07;;;5.63;;
14092;SDS011;7123;49.468;10.992;2024-02-26T02:33:10;9.87;;;6.70;;
14092;SDS011;7123;49.468;10.992;2024-02-26T02:35:38;8.47;;;6.53;;
14092;SDS011;7123;49.468;10.992;2024-02-26T02:38:05;8.90;;;5.83;;
14092;SDS011;7123;49.468;10.992;2024-02-26T02:40:32;10.40;;;6.10;;
14092;SDS011;7123;49.468;10.992;2024-02-26T02:42:59;6.97;;;5.80;;
14092;SDS011;7123;49.468;10.992;2024-02-26T02:45:28;8.33;;;6.20;;
14092;SDS011;7123;49.468;10.992;2024-02-26T02:47:55;9.17;;;6.50;;
14092;SDS011;7123;49.468;10.992;2024-02-26T02:50:22;8.07;;;6.07;;
14092;SDS011;7123;49.468;10.992;2024-02-26T02:52:49;11.30;;;6.60;;
14092;SDS011;7123;49.468;10.992;2024-02-26T02:55:16;10.67;;;6.47;;
14092;SDS011;7123;49.468;10.992;2024-02-26T02:57:44;9.97;;;6.30;;
14092;SDS011;7123;49.468;10.992;2024-02-26T03:00:11;9.50;;;5.97;;
14092;SDS011;7123;49.468;10.992;2024-02-26T03:02:38;10.27;;;6.83;;
14092;SDS011;7123;49.468;10.992;2024-02-26T03:05:05;9.73;;;6.60;;
14092;SDS011;7123;49.468;10.992;2024-02-26T03:07:32;11.33;;;6.90;;
14092;SDS011;7123;49.468;10.992;2024-02-26T03:09:59;10.47;;;6.73;;
14092;SDS011;7123;49.468;10.992;2024-02-26T03:12:27;9.43;;;6.77;;
14092;SDS011;7123;49.468;10.992;2024-02-26T03:14:54;9.07;;;6.53;;
14092;SDS011;7123;49.468;10.992;2024-02-26T03:17:21;8.57;;;6.27;;
14092;SDS011;7123;49.468;10.992;2024-02-26T03:19:50;9.70;;;6.33;;
14092;SDS011;7123;49.468;10.992;2024-02-26T03:22:19;10.30;;;6.13;;
14092;SDS011;7123;49.468;10.992;2024-02-26T03:24:47;10.63;;;6.07;;
14092;SDS011;7123;49.468;10.992;2024-02-26T03:27:14;9.10;;;6.50;;
14092;SDS011;7123;49.468;10.992;2024-02-26T03:29:41;9.10;;;6.60;;
14092;SDS011;7123;49.468;10.992;2024-02-26T03:32:08;9.67;;;6.00;;
14092;SDS011;7123;49.468;10.992;2024-02-26T03:34:34;7.00;;;5.90;;
14092;SDS011;7123;49.468;10.992;2024-02-26T03:37:01;9.73;;;6.10;;
14092;SDS011;7123;49.468;10.992;2024-02-26T03:39:28;10.47;;;6.73;;
14092;SDS011;7123;49.468;10.992;2024-02-26T03:41:55;9.80;;;6.50;;
14092;SDS011;7123;49.468;10.992;2024-02-26T03:44:22;8.73;;;5.70;;
14092;SDS011;7123;49.468;10.992;2024-02-26T03:46:49;8.77;;;5.87;;
14092;SDS011;7123;49.468;10.992;2024-02-26T03:49:15;10.17;;;5.40;;
14092;SDS011;7123;49.468;10.992;2024-02-26T03:51:43;8.63;;;6.13;;
14092;SDS011;7123;49.468;10.992;2024-02-26T03:54:09;7.70;;;5.80;;
14092;SDS011;7123;49.468;10.992;2024-02-26T03:56:36;8.60;;;5.80;;
14092;SDS011;7123;49.468;10.992;2024-02-26T03:59:03;6.77;;;5.10;;
14092;SDS011;7123;49.468;10.992;2024-02-26T04:01:30;7.57;;;5.67;;
14092;SDS011;7123;49.468;10.992;2024-02-26T04:03:57;7.07;;;5.30;;
14092;SDS011;7123;49.468;10.992;2024-02-26T04:06:23;8.20;;;5.40;;
14092;SDS011;7123;49.468;10.992;2024-02-26T04:08:50;6.93;;;5.33;;
14092;SDS011;7123;49.468;10.992;2024-02-26T04:11:17;7.67;;;5.67;;
14092;SDS011;7123;49.468;10.992;2024-02-26T04:13:45;7.17;;;5.73;;
14092;SDS011;7123;49.468;10.992;2024-02-26T04:16:12;8.10;;;5.73;;
14092;SDS011;7123;49.468;10.992;2024-02-26T04:18:39;11.60;;;5.83;;
14092;SDS011;7123;49.468;10.992;2024-02-26T04:21:06;7.77;;;5.67;;
14092;SDS011;7123;49.468;10.992;2024-02-26T04:23:34;7.93;;;5.47;;
14092;SDS011;7123;49.468;10.992;2024-02-26T04:26:01;9.03;;;5.90;;
14092;SDS011;7123;49.468;10.992;2024-02-26T04:28:27;8.00;;;5.83;;
14092;SDS011;7123;49.468;10.992;2024-02-26T04:30:55;8.47;;;5.50;;
14092;SDS011;7123;49.468;10.992;2024-02-26T04:33:22;10.40;;;5.50;;
14092;SDS011;7123;49.468;10.992;2024-02-26T04:35:49;9.67;;;5.73;;
14092;SDS011;7123;49.468;10.992;2024-02-26T04:38:16;7.23;;;5.17;;
14092;SDS011;7123;49.468;10.992;2024-02-26T04:40:42;10.63;;;5.87;;
14092;SDS011;7123;49.468;10.992;2024-02-26T04:43:09;10.03;;;5.60;;
14092;SDS011;7123;49.468;10.992;2024-02-26T04:45:36;10.50;;;5.87;;
14092;SDS011;7123;49.468;10.992;2024-02-26T04:48:03;7.17;;;5.33;;
14092;SDS011;7123;49.468;10.992;2024-02-26T04:50:30;7.33;;;5.07;;
14092;SDS011;7123;49.468;10.992;2024-02-26T04:52:57;8.20;;;5.40;;
14092;SDS011;7123;49.468;10.992;2024-02-26T04:55:23;8.37;;;5.37;;
14092;SDS011;7123;49.468;10.992;2024-02-26T04:57:50;5.33;;;4.83;;
14092;SDS011;7123;49.468;10.992;2024-02-26T05:00:17;7.50;;;5.33;;
14092;SDS011;7123;49.468;10.992;2024-02-26T05:02:44;7.83;;;4.90;;
14092;SDS011;7123;49.468;10.992;2024-02-26T05:05:12;7.30;;;5.60;;
14092;SDS011;7123;49.468;10.992;2024-02-26T05:07:40;8.67;;;5.50;;
14092;SDS011;7123;49.468;10.992;2024-02-26T05:10:08;9.40;;;5.20;;
14092;SDS011;7123;49.468;10.992;2024-02-26T05:12:35;6.53;;;4.90;;
14092;SDS011;7123;49.468;10.992;2024-02-26T05:15:02;6.50;;;5.07;;
14092;SDS011;7123;49.468;10.992;2024-02-26T05:17:30;6.20;;;4.93;;
14092;SDS011;7123;49.468;10.992;2024-02-26T05:19:56;8.47;;;5.40;;
14092;SDS011;7123;49.468;10.992;2024-02-26T05:22:23;5.67;;;4.87;;
14092;SDS011;7123;49.468;10.992;2024-02-26T05:24:50;7.80;;;5.30;;
14092;SDS011;7123;49.468;10.992;2024-02-26T05:27:17;7.53;;;4.80;;
14092;SDS011;7123;49.468;10.992;2024-02-26T05:29:44;7.93;;;5.53;;
14092;SDS011;7123;49.468;10.992;2024-02-26T05:32:11;7.10;;;5.37;;
14092;SDS011;7123;49.468;10.992;2024-02-26T05:34:38;7.10;;;5.30;;
14092;SDS011;7123;49.468;10.992;2024-02-26T05:37:06;8.23;;;4.90;;
14092;SDS011;7123;49.468;10.992;2024-02-26T05:39:33;8.43;;;5.60;;
14092;SDS011;7123;49.468;10.992;2024-02-26T05:42:00;9.40;;;6.27;;
14092;SDS011;7123;49.468;10.992;2024-02-26T05:44:27;9.43;;;6.83;;
14092;SDS011;7123;49.468;10.992;2024-02-26T05:46:54;10.20;;;6.53;;
14092;SDS011;7123;49.468;10.992;2024-02-26T05:49:22;7.83;;;6.00;;
14092;SDS011;7123;49.468;10.992;2024-02-26T05:51:49;8.57;;;6.20;;
14092;SDS011;7123;49.468;10.992;2024-02-26T05:54:16;10.83;;;6.80;;
14092;SDS011;7123;49.468;10.992;2024-02-26T05:56:42;10.50;;;6.60;;
14092;SDS011;7123;49.468;10.992;2024-02-26T05:59:09;7.83;;;5.80;;
14092;SDS011;7123;49.468;10.992;2024-02-26T06:01:36;8.23;;;6.53;;
14092;SDS011;7123;49.468;10.992;2024-02-26T06:04:03;9.87;;;6.90;;
14092;SDS011;7123;49.468;10.992;2024-02-26T06:06:30;11.23;;;7.50;;
14092;SDS011;7123;49.468;10.992;2024-02-26T06:08:57;10.50;;;6.80;;
14092;SDS011;7123;49.468;10.992;2024-02-26T06:11:24;10.83;;;7.03;;
14092;SDS011;7123;49.468;10.992;2024-02-26T06:13:51;10.93;;;7.23;;
14092;SDS011;7123;49.468;10.992;2024-02-26T06:16:17;11.43;;;7.43;;
14092;SDS011;7123;49.468;10.992;2024-02-26T06:18:44;8.37;;;6.47;;
14092;SDS011;7123;49.468;10.992;2024-02-26T06:21:11;9.47;;;6.90;;
14092;SDS011;7123;49.468;10.992;2024-02-26T06:23:38;10.80;;;6.93;;
14092;SDS011;7123;49.468;10.992;2024-02-26T06:26:06;10.13;;;6.53;;
14092;SDS011;7123;49.468;10.992;2024-02-26T06:28:33;10.63;;;6.97;;
14092;SDS011;7123;49.468;10.992;2024-02-26T06:31:01;11.10;;;6.77;;
14092;SDS011;7123;49.468;10.992;2024-02-26T06:33:29;13.53;;;6.90;;
14092;SDS011;7123;49.468;10.992;2024-02-26T06:35:56;10.07;;;6.57;;
14092;SDS011;7123;49.468;10.992;2024-02-26T06:38:22;10.80;;;7.53;;
14092;SDS011;7123;49.468;10.992;2024-02-26T06:40:49;11.77;;;7.93;;
14092;SDS011;7123;49.468;10.992;2024-02-26T06:43:16;13.43;;;8.13;;
14092;SDS011;7123;49.468;10.992;2024-02-26T06:45:43;12.97;;;7.40;;
14092;SDS011;7123;49.468;10.992;2024-02-26T06:48:09;9.87;;;7.10;;
14092;SDS011;7123;49.468;10.992;2024-02-26T06:50:36;10.80;;;7.13;;
14092;SDS011;7123;49.468;10.992;2024-02-26T06:53:04;8.50;;;6.53;;
14092;SDS011;7123;49.468;10.992;2024-02-26T06:55:31;9.03;;;7.00;;
14092;SDS011;7123;49.468;10.992;2024-02-26T06:57:58;13.13;;;7.17;;
14092;SDS011;7123;49.468;10.992;2024-02-26T07:00:25;10.87;;;6.73;;
14092;SDS011;7123;49.468;10.992;2024-02-26T07:02:51;8.13;;;6.07;;
14092;SDS011;7123;49.468;10.992;2024-02-26T07:05:18;7.23;;;5.37;;
14092;SDS011;7123;49.468;10.992;2024-02-26T07:07:45;7.77;;;5.37;;
14092;SDS011;7123;49.468;10.992;2024-02-26T07:10:12;6.77;;;5.00;;
14092;SDS011;7123;49.468;10.992;2024-02-26T07:12:39;8.63;;;5.20;;
14092;SDS011;7123;49.468;10.992;2024-02-26T07:15:06;6.27;;;5.03;;
14092;SDS011;7123;49.468;10.992;2024-02-26T07:17:34;7.30;;;5.10;;
14092;SDS011;7123;49.468;10.992;2024-02-26T07:20:01;5.87;;;4.67;;
14092;SDS011;7123;49.468;10.992;2024-02-26T07:22:33;8.70;;;4.90;;
14092;SDS011;7123;49.468;10.992;2024-02-26T07:25:00;8.53;;;4.90;;
14092;SDS011;7123;49.468;10.992;2024-02-26T07:27:27;8.20;;;5.03;;
14092;SDS011;7123;49.468;10.992;2024-02-26T07:29:54;5.33;;;4.70;;
14092;SDS011;7123;49.468;10.992;2024-02-26T07:32:21;6.80;;;4.80;;
14092;SDS011;7123;49.468;10.992;2024-02-26T07:34:48;7.13;;;4.90;;
14092;SDS011;7123;49.468;10.992;2024-02-26T07:37:15;11.70;;;5.10;;
14092;SDS011;7123;49.468;10.992;2024-02-26T07:39:42;6.67;;;5.47;;
14092;SDS011;7123;49.468;10.992;2024-02-26T07:42:09;10.03;;;5.77;;
14092;SDS011;7123;49.468;10.992;2024-02-26T07:44:37;9.33;;;5.60;;
14092;SDS011;7123;49.468;10.992;2024-02-26T07:47:09;6.73;;;5.00;;
14092;SDS011;7123;49.468;10.992;2024-02-26T07:49:36;11.03;;;6.20;;
14092;SDS011;7123;49.468;10.992;2024-02-26T07:52:05;11.53;;;5.50;;
14092;SDS011;7123;49.468;10.992;2024-02-26T07:54:32;11.27;;;5.50;;
14092;SDS011;7123;49.468;10.992;2024-02-26T07:56:59;8.00;;;4.57;;
14092;SDS011;7123;49.468;10.992;2024-02-26T07:59:26;6.40;;;4.53;;
14092;SDS011;7123;49.468;10.992;2024-02-26T08:01:52;8.40;;;5.20;;
14092;SDS011;7123;49.468;10.992;2024-02-26T08:04:24;9.63;;;4.67;;
14092;SDS011;7123;49.468;10.992;2024-02-26T08:06:53;10.40;;;4.53;;
14092;SDS011;7123;49.468;10.992;2024-02-26T08:09:20;7.07;;;4.30;;
14092;SDS011;7123;49.468;10.992;2024-02-26T08:11:46;5.63;;;4.27;;
14092;SDS011;7123;49.468;10.992;2024-02-26T08:14:13;8.50;;;3.87;;
14092;SDS011;7123;49.468;10.992;2024-02-26T08:16:41;4.07;;;3.60;;
14092;SDS011;7123;49.468;10.992;2024-02-26T08:19:08;7.50;;;4.07;;
14092;SDS011;7123;49.468;10.992;2024-02-26T08:21:36;7.07;;;3.80;;
14092;SDS011;7123;49.468;10.992;2024-02-26T08:24:03;4.23;;;3.37;;
14092;SDS011;7123;49.468;10.992;2024-02-26T08:26:30;5.90;;;3.90;;
14092;SDS011;7123;49.468;10.992;2024-02-26T08:28:57;6.20;;;3.50;;
14092;SDS011;7123;49.468;10.992;2024-02-26T08:31:24;4.23;;;3.53;;
14092;SDS011;7123;49.468;10.992;2024-02-26T08:33:51;5.73;;;3.67;;
14092;SDS011;7123;49.468;10.992;2024-02-26T08:36:19;7.97;;;3.67;;
14092;SDS011;7123;49.468;10.992;2024-02-26T08:38:46;7.23;;;4.07;;
14092;SDS011;7123;49.468;10.992;2024-02-26T08:41:13;4.33;;;3.40;;
14092;SDS011;7123;49.468;10.992;2024-02-26T08:43:40;6.80;;;3.67;;
14092;SDS011;7123;49.468;10.992;2024-02-26T08:46:09;8.77;;;3.77;;
14092;SDS011;7123;49.468;10.992;2024-02-26T08:48:38;10.90;;;3.90;;
14092;SDS011;7123;49.468;10.992;2024-02-26T08:51:06;12.37;;;4.20;;
14092;SDS011;7123;49.468;10.992;2024-02-26T08:53:34;10.13;;;4.57;;
14092;SDS011;7123;49.468;10.992;2024-02-26T08:56:09;10.87;;;5.80;;
14092;SDS011;7123;49.468;10.992;2024-02-26T08:58:37;10.87;;;4.77;;
14092;SDS011;7123;49.468;10.992;2024-02-26T09:01:04;12.20;;;6.67;;
14092;SDS011;7123;49.468;10.992;2024-02-26T09:03:31;8.23;;;4.60;;
14092;SDS011;7123;49.468;10.992;2024-02-26T09:05:58;7.97;;;4.60;;
14092;SDS011;7123;49.468;10.992;2024-02-26T09:08:25;9.73;;;5.37;;
14092;SDS011;7123;49.468;10.992;2024-02-26T09:10:51;12.23;;;5.60;;
14092;SDS011;7123;49.468;10.992;2024-02-26T09:13:19;8.80;;;5.53;;
14092;SDS011;7123;49.468;10.992;2024-02-26T09:15:45;10.80;;;5.67;;
14092;SDS011;7123;49.468;10.992;2024-02-26T09:18:12;10.03;;;5.20;;
14092;SDS011;7123;49.468;10.992;2024-02-26T09:20:41;9.57;;;5.30;;
14092;SDS011;7123;49.468;10.992;2024-02-26T09:23:08;11.03;;;5.80;;
14092;SDS011;7123;49.468;10.992;2024-02-26T09:25:35;7.53;;;4.37;;
14092;SDS011;7123;49.468;10.992;2024-02-26T09:28:02;7.60;;;4.60;;
14092;SDS011;7123;49.468;10.992;2024-02-26T09:30:29;8.67;;;4.60;;
14092;SDS011;7123;49.468;10.992;2024-02-26T09:32:56;8.37;;;3.93;;
14092;SDS011;7123;49.468;10.992;2024-02-26T09:35:23;4.57;;;3.53;;
14092;SDS011;7123;49.468;10.992;2024-02-26T09:37:50;4.83;;;3.63;;
14092;SDS011;7123;49.468;10.992;2024-02-26T09:40:17;5.57;;;3.70;;
14092;SDS011;7123;49.468;10.992;2024-02-26T09:42:44;9.23;;;3.80;;
14092;SDS011;7123;49.468;10.992;2024-02-26T09:45:15;5.97;;;4.00;;
14092;SDS011;7123;49.468;10.992;2024-02-26T09:47:45;4.90;;;4.00;;
14092;SDS011;7123;49.468;10.992;2024-02-26T09:50:14;5.23;;;3.50;;
14092;SDS011;7123;49.468;10.992;2024-02-26T09:52:44;8.83;;;4.43;;
14092;SDS011;7123;49.468;10.992;2024-02-26T09:55:11;9.83;;;3.60;;
14092;SDS011;7123;49.468;10.992;2024-02-26T09:57:38;8.63;;;4.10;;
14092;SDS011;7123;49.468;10.992;2024-02-26T10:00:09;3.67;;;3.30;;
14092;SDS011;7123;49.468;10.992;2024-02-26T10:02:56;8.00;;;3.27;;
14092;SDS011;7123;49.468;10.992;2024-02-26T10:05:24;6.93;;;3.70;;
14092;SDS011;7123;49.468;10.992;2024-02-26T10:07:53;3.77;;;3.17;;
14092;SDS011;7123;49.468;10.992;2024-02-26T10:10:22;5.30;;;3.53;;
14092;SDS011;7123;49.468;10.992;2024-02-26T10:12:48;4.77;;;3.50;;
14092;SDS011;7123;49.468;10.992;2024-02-26T10:15:16;3.97;;;3.20;;
14092;SDS011;7123;49.468;10.992;2024-02-26T10:17:42;4.23;;;3.27;;
14092;SDS011;7123;49.468;10.992;2024-02-26T10:20:13;4.53;;;3.00;;
14092;SDS011;7123;49.468;10.992;2024-02-26T10:22:45;3.70;;;3.00;;
14092;SDS011;7123;49.468;10.992;2024-02-26T10:25:12;3.70;;;3.00;;
14092;SDS011;7123;49.468;10.992;2024-02-26T10:27:40;3.77;;;3.40;;
14092;SDS011;7123;49.468;10.992;2024-02-26T10:30:17;8.17;;;3.40;;
14092;SDS011;7123;49.468;10.992;2024-02-26T10:32:45;5.03;;;3.17;;
14092;SDS011;7123;49.468;10.992;2024-02-26T10:35:16;3.87;;;3.47;;
14092;SDS011;7123;49.468;10.992;2024-02-26T10:37:49;2.97;;;2.73;;
14092;SDS011;7123;49.468;10.992;2024-02-26T10:40:16;3.47;;;3.13;;
14092;SDS011;7123;49.468;10.992;2024-02-26T10:42:43;3.90;;;3.30;;
14092;SDS011;7123;49.468;10.992;2024-02-26T10:45:12;3.80;;;3.17;;
14092;SDS011;7123;49.468;10.992;2024-02-26T10:47:39;4.67;;;3.33;;
14092;SDS011;7123;49.468;10.992;2024-02-26T10:50:07;7.17;;;3.30;;
14092;SDS011;7123;49.468;10.992;2024-02-26T10:52:35;4.13;;;3.30;;
14092;SDS011;7123;49.468;10.992;2024-02-26T10:55:04;5.30;;;3.40;;
14092;SDS011;7123;49.468;10.992;2024-02-26T10:57:43;4.40;;;3.63;;
14092;SDS011;7123;49.468;10.992;2024-02-26T11:00:14;3.37;;;3.07;;
14092;SDS011;7123;49.468;10.992;2024-02-26T11:02:42;4.43;;;3.47;;
14092;SDS011;7123;49.468;10.992;2024-02-26T11:05:12;3.90;;;3.20;;
14092;SDS011;7123;49.468;10.992;2024-02-26T11:07:39;7.13;;;3.40;;
14092;SDS011;7123;49.468;10.992;2024-02-26T11:10:07;3.83;;;3.07;;
14092;SDS011;7123;49.468;10.992;2024-02-26T11:12:39;6.20;;;2.83;;
14092;SDS011;7123;49.468;10.992;2024-02-26T11:15:06;5.07;;;3.20;;
14092;SDS011;7123;49.468;10.992;2024-02-26T11:17:35;4.43;;;2.50;;
14092;SDS011;7123;49.468;10.992;2024-02-26T11:20:03;5.70;;;3.17;;
14092;SDS011;7123;49.468;10.992;2024-02-26T11:22:32;3.53;;;3.13;;
14092;SDS011;7123;49.468;10.992;2024-02-26T11:24:59;7.47;;;3.10;;
14092;SDS011;7123;49.468;10.992;2024-02-26T11:27:28;5.07;;;2.70;;
14092;SDS011;7123;49.468;10.992;2024-02-26T11:29:59;4.33;;;3.10;;
14092;SDS011;7123;49.468;10.992;2024-02-26T11:32:28;4.67;;;2.70;;
14092;SDS011;7123;49.468;10.992;2024-02-26T11:34:57;4.47;;;2.80;;
14092;SDS011;7123;49.468;10.992;2024-02-26T11:37:25;2.90;;;2.57;;
14092;SDS011;7123;49.468;10.992;2024-02-26T11:39:52;4.20;;;2.60;;
14092;SDS011;7123;49.468;10.992;2024-02-26T11:42:22;3.63;;;3.20;;
14092;SDS011;7123;49.468;10.992;2024-02-26T11:44:54;4.90;;;2.60;;
14092;SDS011;7123;49.468;10.992;2024-02-26T11:47:27;5.40;;;2.73;;
14092;SDS011;7123;49.468;10.992;2024-02-26T11:49:54;4.17;;;2.80;;
14092;SDS011;7123;49.468;10.992;2024-02-26T11:52:21;2.83;;;2.40;;
14092;SDS011;7123;49.468;10.992;2024-02-26T11:54:57;2.47;;;2.27;;
14092;SDS011;7123;49.468;10.992;2024-02-26T11:59:53;2.93;;;2.20;;
14092;SDS011;7123;49.468;10.992;2024-02-26T12:02:40;3.13;;;2.40;;
14092;SDS011;7123;49.468;10.992;2024-02-26T12:05:15;2.60;;;2.30;;
14092;SDS011;7123;49.468;10.992;2024-02-26T12:07:48;3.23;;;2.40;;
14092;SDS011;7123;49.468;10.992;2024-02-26T12:10:36;2.70;;;2.50;;
14092;SDS011;7123;49.468;10.992;2024-02-26T12:13:06;3.13;;;2.27;;
14092;SDS011;7123;49.468;10.992;2024-02-26T12:15:44;5.17;;;1.87;;
14092;SDS011;7123;49.468;10.992;2024-02-26T12:18:16;2.53;;;2.33;;
14092;SDS011;7123;49.468;10.992;2024-02-26T12:20:44;2.80;;;2.00;;
14092;SDS011;7123;49.468;10.992;2024-02-26T12:23:15;2.00;;;1.90;;
14092;SDS011;7123;49.468;10.992;2024-02-26T12:25:43;2.63;;;2.10;;
14092;SDS011;7123;49.468;10.992;2024-02-26T12:28:10;6.07;;;2.40;;
14092;SDS011;7123;49.468;10.992;2024-02-26T12:30:37;2.23;;;2.03;;
14092;SDS011;7123;49.468;10.992;2024-02-26T12:33:04;2.40;;;2.20;;
14092;SDS011;7123;49.468;10.992;2024-02-26T12:35:32;3.00;;;2.10;;
14092;SDS011;7123;49.468;10.992;2024-02-26T12:38:00;4.20;;;2.40;;
14092;SDS011;7123;49.468;10.992;2024-02-26T12:40:29;3.27;;;2.30;;
14092;SDS011;7123;49.468;10.992;2024-02-26T12:42:57;4.70;;;2.30;;
14092;SDS011;7123;49.468;10.992;2024-02-26T12:45:25;2.40;;;2.13;;
14092;SDS011;7123;49.468;10.992;2024-02-26T12:47:52;3.27;;;2.37;;
14092;SDS011;7123;49.468;10.992;2024-02-26T12:50:19;2.93;;;2.53;;
14092;SDS011;7123;49.468;10.992;2024-02-26T12:52:46;4.63;;;2.30;;
14092;SDS011;7123;49.468;10.992;2024-02-26T12:55:18;3.63;;;2.13;;
14092;SDS011;7123;49.468;10.992;2024-02-26T12:57:47;3.67;;;2.07;;
14092;SDS011;7123;49.468;10.992;2024-02-26T13:00:16;4.00;;;2.60;;
14092;SDS011;7123;49.468;10.992;2024-02-26T13:02:48;2.30;;;2.10;;
14092;SDS011;7123;49.468;10.992;2024-02-26T13:05:17;2.40;;;2.20;;
14092;SDS011;7123;49.468;10.992;2024-02-26T13:07:45;2.60;;;2.40;;
14092;SDS011;7123;49.468;10.992;2024-02-26T13:10:17;3.00;;;2.70;;
14092;SDS011;7123;49.468;10.992;2024-02-26T13:12:45;3.00;;;2.80;;
14092;SDS011;7123;49.468;10.992;2024-02-26T13:15:16;2.70;;;2.50;;
14092;SDS011;7123;49.468;10.992;2024-02-26T13:17:45;3.17;;;2.40;;
14092;SDS011;7123;49.468;10.992;2024-02-26T13:20:12;5.37;;;2.50;;
14092;SDS011;7123;49.468;10.992;2024-02-26T13:22:41;3.83;;;2.30;;
14092;SDS011;7123;49.468;10.992;2024-02-26T13:25:08;3.37;;;2.10;;
14092;SDS011;7123;49.468;10.992;2024-02-26T13:27:34;2.10;;;1.90;;
14092;SDS011;7123;49.468;10.992;2024-02-26T13:32:39;2.43;;;2.20;;
14092;SDS011;7123;49.468;10.992;2024-02-26T13:35:10;4.83;;;1.87;;
14092;SDS011;7123;49.468;10.992;2024-02-26T13:37:38;3.40;;;1.83;;
14092;SDS011;7123;49.468;10.992;2024-02-26T13:40:09;3.07;;;2.27;;
14092;SDS011;7123;49.468;10.992;2024-02-26T13:42:37;4.07;;;1.60;;
14092;SDS011;7123;49.468;10.992;2024-02-26T13:45:05;1.77;;;1.67;;
14092;SDS011;7123;49.468;10.992;2024-02-26T13:47:36;2.60;;;1.80;;
14092;SDS011;7123;49.468;10.992;2024-02-26T13:50:03;2.73;;;1.67;;
14092;SDS011;7123;49.468;10.992;2024-02-26T13:52:30;1.90;;;1.70;;
14092;SDS011;7123;49.468;10.992;2024-02-26T13:54:58;2.17;;;1.50;;
14092;SDS011;7123;49.468;10.992;2024-02-26T13:57:25;1.80;;;1.70;;
14092;SDS011;7123;49.468;10.992;2024-02-26T13:59:53;1.70;;;1.37;;
14092;SDS011;7123;49.468;10.992;2024-02-26T14:02:20;1.63;;;1.53;;
14092;SDS011;7123;49.468;10.992;2024-02-26T14:04:47;3.90;;;1.80;;
14092;SDS011;7123;49.468;10.992;2024-02-26T14:07:14;1.57;;;1.47;;
14092;SDS011;7123;49.468;10.992;2024-02-26T14:09:43;1.30;;;1.20;;
14092;SDS011;7123;49.468;10.992;2024-02-26T14:12:15;4.33;;;1.50;;
14092;SDS011;7123;49.468;10.992;2024-02-26T14:14:47;1.53;;;1.43;;
14092;SDS011;7123;49.468;10.992;2024-02-26T14:17:15;1.40;;;1.30;;
14092;SDS011;7123;49.468;10.992;2024-02-26T14:19:42;2.27;;;1.50;;
14092;SDS011;7123;49.468;10.992;2024-02-26T14:22:14;1.63;;;1.47;;
14092;SDS011;7123;49.468;10.992;2024-02-26T14:24:44;3.57;;;1.43;;
14092;SDS011;7123;49.468;10.992;2024-02-26T14:27:12;2.00;;;1.80;;
14092;SDS011;7123;49.468;10.992;2024-02-26T14:29:43;1.57;;;1.47;;
14092;SDS011;7123;49.468;10.992;2024-02-26T14:32:10;4.33;;;1.90;;
14092;SDS011;7123;49.468;10.992;2024-02-26T14:34:37;8.20;;;2.07;;
14092;SDS011;7123;49.468;10.992;2024-02-26T14:37:04;3.53;;;1.63;;
14092;SDS011;7123;49.468;10.992;2024-02-26T14:39:31;1.50;;;1.40;;
14092;SDS011;7123;49.468;10.992;2024-02-26T14:41:59;3.90;;;1.63;;
14092;SDS011;7123;49.468;10.992;2024-02-26T14:44:27;3.13;;;1.57;;
14092;SDS011;7123;49.468;10.992;2024-02-26T14:46:54;2.47;;;1.70;;
14092;SDS011;7123;49.468;10.992;2024-02-26T14:49:21;1.77;;;1.57;;
14092;SDS011;7123;49.468;10.992;2024-02-26T14:51:48;2.37;;;1.80;;
14092;SDS011;7123;49.468;10.992;2024-02-26T14:54:15;1.90;;;1.53;;